sensor_id;sensor_type;location;lat;lon;timestamp;P1;durP1;ratioP1;P2;durP2;ratioP2
21833;SDS011;11079;51.092;3.458;2024-02-21T00:01:17;4.45;;;2.97;;
21833;SDS011;11079;51.092;3.458;2024-02-21T00:03:50;6.20;;;3.05;;
21833;SDS011;11079;51.092;3.458;2024-02-21T00:06:19;8.38;;;3.05;;
21833;SDS011;11079;51.092;3.458;2024-02-21T00:08:45;5.20;;;3.05;;
21833;SDS011;11079;51.092;3.458;2024-02-21T00:11:29;7.15;;;3.38;;
21833;SDS011;11079;51.092;3.458;2024-02-21T00:14:15;5.90;;;3.22;;
21833;SDS011;11079;51.092;3.458;2024-02-21T00:16:45;7.03;;;4.13;;
21833;SDS011;11079;51.092;3.458;2024-02-21T00:19:11;6.93;;;3.83;;
21833;SDS011;11079;51.092;3.458;2024-02-21T00:21:38;6.63;;;3.20;;
21833;SDS011;11079;51.092;3.458;2024-02-21T00:26:44;6.40;;;3.80;;
21833;SDS011;11079;51.092;3.458;2024-02-21T00:29:22;6.50;;;3.17;;
21833;SDS011;11079;51.092;3.458;2024-02-21T00:31:49;4.95;;;3.00;;
21833;SDS011;11079;51.092;3.458;2024-02-21T00:34:18;7.28;;;3.30;;
21833;SDS011;11079;51.092;3.458;2024-02-21T00:36:47;6.22;;;3.03;;
21833;SDS011;11079;51.092;3.458;2024-02-21T00:42:48;7.68;;;3.88;;
21833;SDS011;11079;51.092;3.458;2024-02-21T00:45:14;6.40;;;3.53;;
21833;SDS011;11079;51.092;3.458;2024-02-21T00:47:50;12.32;;;4.15;;
21833;SDS011;11079;51.092;3.458;2024-02-21T00:52:46;7.00;;;4.57;;
21833;SDS011;11079;51.092;3.458;2024-02-21T00:55:12;8.40;;;3.85;;
21833;SDS011;11079;51.092;3.458;2024-02-21T01:00:24;12.13;;;4.75;;
21833;SDS011;11079;51.092;3.458;2024-02-21T01:02:54;6.68;;;4.20;;
21833;SDS011;11079;51.092;3.458;2024-02-21T01:05:20;7.30;;;4.47;;
21833;SDS011;11079;51.092;3.458;2024-02-21T01:07:48;9.68;;;4.57;;
21833;SDS011;11079;51.092;3.458;2024-02-21T01:10:14;7.18;;;3.85;;
21833;SDS011;11079;51.092;3.458;2024-02-21T01:12:42;7.38;;;4.53;;
21833;SDS011;11079;51.092;3.458;2024-02-21T01:15:14;7.95;;;4.63;;
21833;SDS011;11079;51.092;3.458;2024-02-21T01:17:40;10.95;;;5.43;;
21833;SDS011;11079;51.092;3.458;2024-02-21T01:23:17;7.75;;;5.10;;
21833;SDS011;11079;51.092;3.458;2024-02-21T01:25:45;9.02;;;5.13;;
21833;SDS011;11079;51.092;3.458;2024-02-21T01:28:42;8.75;;;4.88;;
21833;SDS011;11079;51.092;3.458;2024-02-21T01:34:09;7.90;;;5.65;;
21833;SDS011;11079;51.092;3.458;2024-02-21T01:36:37;8.80;;;5.50;;
21833;SDS011;11079;51.092;3.458;2024-02-21T01:39:06;12.57;;;5.55;;
21833;SDS011;11079;51.092;3.458;2024-02-21T01:41:32;10.45;;;6.25;;
21833;SDS011;11079;51.092;3.458;2024-02-21T01:43:59;9.40;;;5.70;;
21833;SDS011;11079;51.092;3.458;2024-02-21T01:46:41;11.63;;;6.10;;
21833;SDS011;11079;51.092;3.458;2024-02-21T02:31:23;16.25;;;8.20;;
21833;SDS011;11079;51.092;3.458;2024-02-21T02:33:53;13.02;;;8.45;;
21833;SDS011;11079;51.092;3.458;2024-02-21T02:36:22;15.75;;;8.45;;
21833;SDS011;11079;51.092;3.458;2024-02-21T02:39:00;15.18;;;7.72;;
21833;SDS011;11079;51.092;3.458;2024-02-21T02:41:57;17.15;;;8.00;;
21833;SDS011;11079;51.092;3.458;2024-02-21T02:44:24;16.80;;;8.25;;
21833;SDS011;11079;51.092;3.458;2024-02-21T02:46:50;18.55;;;9.30;;
21833;SDS011;11079;51.092;3.458;2024-02-21T02:49:20;20.17;;;8.60;;
21833;SDS011;11079;51.092;3.458;2024-02-21T02:52:30;19.52;;;8.77;;
21833;SDS011;11079;51.092;3.458;2024-02-21T02:54:57;15.88;;;8.15;;
21833;SDS011;11079;51.092;3.458;2024-02-21T02:57:27;14.98;;;8.73;;
21833;SDS011;11079;51.092;3.458;2024-02-21T03:02:23;17.42;;;7.88;;
21833;SDS011;11079;51.092;3.458;2024-02-21T03:07:53;15.27;;;8.05;;
21833;SDS011;11079;51.092;3.458;2024-02-21T03:10:19;23.23;;;9.32;;
21833;SDS011;11079;51.092;3.458;2024-02-21T03:12:44;19.88;;;8.57;;
21833;SDS011;11079;51.092;3.458;2024-02-21T03:15:13;21.58;;;9.25;;
21833;SDS011;11079;51.092;3.458;2024-02-21T03:17:40;19.02;;;8.43;;
21833;SDS011;11079;51.092;3.458;2024-02-21T03:20:08;15.73;;;8.68;;
21833;SDS011;11079;51.092;3.458;2024-02-21T03:22:34;21.50;;;8.52;;
21833;SDS011;11079;51.092;3.458;2024-02-21T03:25:01;15.07;;;8.23;;
21833;SDS011;11079;51.092;3.458;2024-02-21T03:27:26;22.13;;;8.52;;
21833;SDS011;11079;51.092;3.458;2024-02-21T03:29:53;17.38;;;8.75;;
21833;SDS011;11079;51.092;3.458;2024-02-21T03:32:21;17.48;;;8.35;;
21833;SDS011;11079;51.092;3.458;2024-02-21T03:34:49;25.67;;;9.98;;
21833;SDS011;11079;51.092;3.458;2024-02-21T03:37:20;24.50;;;9.40;;
21833;SDS011;11079;51.092;3.458;2024-02-21T03:39:48;19.15;;;8.70;;
21833;SDS011;11079;51.092;3.458;2024-02-21T03:42:13;17.35;;;8.98;;
21833;SDS011;11079;51.092;3.458;2024-02-21T04:11:03;21.65;;;10.15;;
21833;SDS011;11079;51.092;3.458;2024-02-21T04:14:03;22.13;;;10.05;;
21833;SDS011;11079;51.092;3.458;2024-02-21T04:16:29;25.02;;;10.77;;
21833;SDS011;11079;51.092;3.458;2024-02-21T04:18:54;20.85;;;10.07;;
21833;SDS011;11079;51.092;3.458;2024-02-21T04:21:30;21.50;;;9.90;;
21833;SDS011;11079;51.092;3.458;2024-02-21T04:23:56;19.52;;;9.13;;
21833;SDS011;11079;51.092;3.458;2024-02-21T04:26:37;23.65;;;10.27;;
21833;SDS011;11079;51.092;3.458;2024-02-21T04:29:03;20.42;;;10.15;;
21833;SDS011;11079;51.092;3.458;2024-02-21T04:31:29;19.95;;;10.23;;
21833;SDS011;11079;51.092;3.458;2024-02-21T04:34:02;26.58;;;10.82;;
21833;SDS011;11079;51.092;3.458;2024-02-21T04:36:34;21.50;;;11.10;;
21833;SDS011;11079;51.092;3.458;2024-02-21T04:39:12;23.33;;;9.60;;
21833;SDS011;11079;51.092;3.458;2024-02-21T04:41:45;22.35;;;10.35;;
21833;SDS011;11079;51.092;3.458;2024-02-21T04:44:23;22.13;;;10.50;;
21833;SDS011;11079;51.092;3.458;2024-02-21T04:46:49;23.83;;;10.70;;
21833;SDS011;11079;51.092;3.458;2024-02-21T04:49:19;22.92;;;10.43;;
21833;SDS011;11079;51.092;3.458;2024-02-21T04:52:10;24.13;;;10.18;;
21833;SDS011;11079;51.092;3.458;2024-02-21T04:54:47;18.83;;;10.00;;
21833;SDS011;11079;51.092;3.458;2024-02-21T04:57:18;21.65;;;10.43;;
21833;SDS011;11079;51.092;3.458;2024-02-21T05:02:49;23.27;;;10.02;;
21833;SDS011;11079;51.092;3.458;2024-02-21T05:05:16;23.40;;;9.70;;
21833;SDS011;11079;51.092;3.458;2024-02-21T05:07:47;21.20;;;10.80;;
21833;SDS011;11079;51.092;3.458;2024-02-21T05:10:13;20.38;;;10.75;;
21833;SDS011;11079;51.092;3.458;2024-02-21T05:12:39;19.05;;;9.75;;
21833;SDS011;11079;51.092;3.458;2024-02-21T05:15:04;22.60;;;10.65;;
21833;SDS011;11079;51.092;3.458;2024-02-21T05:17:37;20.50;;;9.82;;
21833;SDS011;11079;51.092;3.458;2024-02-21T05:23:03;21.63;;;9.50;;
21833;SDS011;11079;51.092;3.458;2024-02-21T05:25:29;19.15;;;10.32;;
21833;SDS011;11079;51.092;3.458;2024-02-21T05:27:54;21.63;;;9.98;;
21833;SDS011;11079;51.092;3.458;2024-02-21T05:30:27;21.85;;;10.07;;
21833;SDS011;11079;51.092;3.458;2024-02-21T05:33:12;23.10;;;10.68;;
21833;SDS011;11079;51.092;3.458;2024-02-21T05:35:47;22.98;;;10.80;;
21833;SDS011;11079;51.092;3.458;2024-02-21T05:42:30;19.63;;;10.25;;
21833;SDS011;11079;51.092;3.458;2024-02-21T05:44:55;20.67;;;9.88;;
21833;SDS011;11079;51.092;3.458;2024-02-21T05:47:24;17.40;;;10.48;;
21833;SDS011;11079;51.092;3.458;2024-02-21T05:49:53;19.52;;;9.60;;
21833;SDS011;11079;51.092;3.458;2024-02-21T05:52:30;17.10;;;9.65;;
21833;SDS011;11079;51.092;3.458;2024-02-21T05:54:56;17.13;;;9.93;;
21833;SDS011;11079;51.092;3.458;2024-02-21T06:00:20;19.35;;;10.27;;
21833;SDS011;11079;51.092;3.458;2024-02-21T06:02:46;20.63;;;10.55;;
21833;SDS011;11079;51.092;3.458;2024-02-21T06:05:12;17.30;;;10.50;;
21833;SDS011;11079;51.092;3.458;2024-02-21T06:07:38;16.15;;;9.43;;
21833;SDS011;11079;51.092;3.458;2024-02-21T06:10:10;18.73;;;10.13;;
21833;SDS011;11079;51.092;3.458;2024-02-21T06:12:42;22.50;;;10.07;;
21833;SDS011;11079;51.092;3.458;2024-02-21T06:15:20;17.77;;;9.43;;
21833;SDS011;11079;51.092;3.458;2024-02-21T06:17:48;23.08;;;10.48;;
21833;SDS011;11079;51.092;3.458;2024-02-21T06:20:20;16.80;;;9.63;;
21833;SDS011;11079;51.092;3.458;2024-02-21T06:22:51;16.60;;;10.48;;
21833;SDS011;11079;51.092;3.458;2024-02-21T06:25:21;17.55;;;9.70;;
21833;SDS011;11079;51.092;3.458;2024-02-21T06:27:48;19.40;;;10.88;;
21833;SDS011;11079;51.092;3.458;2024-02-21T06:30:29;17.05;;;9.80;;
21833;SDS011;11079;51.092;3.458;2024-02-21T06:32:56;15.68;;;10.05;;
21833;SDS011;11079;51.092;3.458;2024-02-21T06:35:30;20.10;;;10.57;;
21833;SDS011;11079;51.092;3.458;2024-02-21T06:38:08;22.08;;;10.40;;
21833;SDS011;11079;51.092;3.458;2024-02-21T06:40:34;28.38;;;10.43;;
21833;SDS011;11079;51.092;3.458;2024-02-21T06:43:26;18.23;;;9.88;;
21833;SDS011;11079;51.092;3.458;2024-02-21T06:45:53;17.15;;;9.88;;
21833;SDS011;11079;51.092;3.458;2024-02-21T06:49:01;15.02;;;10.18;;
21833;SDS011;11079;51.092;3.458;2024-02-21T06:51:31;19.98;;;9.52;;
21833;SDS011;11079;51.092;3.458;2024-02-21T06:54:04;16.63;;;9.13;;
21833;SDS011;11079;51.092;3.458;2024-02-21T07:02:18;15.60;;;9.82;;
21833;SDS011;11079;51.092;3.458;2024-02-21T07:04:55;19.27;;;10.13;;
21833;SDS011;11079;51.092;3.458;2024-02-21T07:07:20;20.55;;;10.38;;
21833;SDS011;11079;51.092;3.458;2024-02-21T07:10:00;17.58;;;10.35;;
21833;SDS011;11079;51.092;3.458;2024-02-21T07:12:26;24.50;;;10.65;;
21833;SDS011;11079;51.092;3.458;2024-02-21T07:15:18;19.65;;;10.35;;
21833;SDS011;11079;51.092;3.458;2024-02-21T07:17:44;19.17;;;9.55;;
21833;SDS011;11079;51.092;3.458;2024-02-21T07:20:13;16.25;;;9.68;;
21833;SDS011;11079;51.092;3.458;2024-02-21T07:22:38;17.58;;;9.40;;
21833;SDS011;11079;51.092;3.458;2024-02-21T07:27:44;13.40;;;8.63;;
21833;SDS011;11079;51.092;3.458;2024-02-21T07:30:30;15.65;;;8.57;;
21833;SDS011;11079;51.092;3.458;2024-02-21T07:33:11;15.88;;;9.38;;
21833;SDS011;11079;51.092;3.458;2024-02-21T07:39:01;14.82;;;9.07;;
21833;SDS011;11079;51.092;3.458;2024-02-21T07:41:53;15.27;;;9.75;;
21833;SDS011;11079;51.092;3.458;2024-02-21T07:44:19;13.57;;;8.73;;
21833;SDS011;11079;51.092;3.458;2024-02-21T07:46:52;13.07;;;8.60;;
21833;SDS011;11079;51.092;3.458;2024-02-21T07:49:24;17.90;;;9.38;;
21833;SDS011;11079;51.092;3.458;2024-02-21T07:52:00;14.82;;;9.43;;
21833;SDS011;11079;51.092;3.458;2024-02-21T07:55:21;22.35;;;10.05;;
21833;SDS011;11079;51.092;3.458;2024-02-21T08:00:35;18.42;;;11.00;;
21833;SDS011;11079;51.092;3.458;2024-02-21T08:06:25;18.15;;;10.77;;
21833;SDS011;11079;51.092;3.458;2024-02-21T08:08:50;16.42;;;10.13;;
21833;SDS011;11079;51.092;3.458;2024-02-21T08:18:02;16.77;;;11.30;;
21833;SDS011;11079;51.092;3.458;2024-02-21T08:21:19;17.48;;;11.48;;
21833;SDS011;11079;51.092;3.458;2024-02-21T08:23:45;18.75;;;10.35;;
21833;SDS011;11079;51.092;3.458;2024-02-21T08:26:48;20.00;;;10.73;;
21833;SDS011;11079;51.092;3.458;2024-02-21T08:29:36;22.38;;;11.07;;
21833;SDS011;11079;51.092;3.458;2024-02-21T08:32:03;19.10;;;9.88;;
21833;SDS011;11079;51.092;3.458;2024-02-21T08:34:49;20.48;;;10.65;;
21833;SDS011;11079;51.092;3.458;2024-02-21T08:37:15;16.23;;;10.43;;
21833;SDS011;11079;51.092;3.458;2024-02-21T08:39:48;17.58;;;9.93;;
21833;SDS011;11079;51.092;3.458;2024-02-21T08:42:17;16.20;;;9.63;;
21833;SDS011;11079;51.092;3.458;2024-02-21T08:44:42;19.95;;;10.50;;
21833;SDS011;11079;51.092;3.458;2024-02-21T08:47:12;20.55;;;10.75;;
21833;SDS011;11079;51.092;3.458;2024-02-21T08:49:42;17.83;;;11.73;;
21833;SDS011;11079;51.092;3.458;2024-02-21T08:52:08;20.88;;;10.57;;
21833;SDS011;11079;51.092;3.458;2024-02-21T08:54:40;17.92;;;9.75;;
21833;SDS011;11079;51.092;3.458;2024-02-21T08:57:06;20.33;;;10.85;;
21833;SDS011;11079;51.092;3.458;2024-02-21T08:59:55;15.85;;;9.90;;
21833;SDS011;11079;51.092;3.458;2024-02-21T09:02:23;16.30;;;9.60;;
21833;SDS011;11079;51.092;3.458;2024-02-21T09:04:58;17.58;;;9.90;;
21833;SDS011;11079;51.092;3.458;2024-02-21T09:11:11;16.27;;;9.52;;
21833;SDS011;11079;51.092;3.458;2024-02-21T09:13:39;21.92;;;9.88;;
21833;SDS011;11079;51.092;3.458;2024-02-21T09:19:58;17.55;;;9.82;;
21833;SDS011;11079;51.092;3.458;2024-02-21T09:23:15;21.83;;;10.80;;
21833;SDS011;11079;51.092;3.458;2024-02-21T09:25:45;15.05;;;8.88;;
21833;SDS011;11079;51.092;3.458;2024-02-21T09:28:11;18.25;;;8.63;;
21833;SDS011;11079;51.092;3.458;2024-02-21T09:30:40;14.85;;;10.43;;
21833;SDS011;11079;51.092;3.458;2024-02-21T09:36:43;14.15;;;8.85;;
21833;SDS011;11079;51.092;3.458;2024-02-21T09:39:11;15.43;;;8.90;;
21833;SDS011;11079;51.092;3.458;2024-02-21T09:41:42;18.30;;;9.57;;
21833;SDS011;11079;51.092;3.458;2024-02-21T09:44:32;17.38;;;9.70;;
21833;SDS011;11079;51.092;3.458;2024-02-21T09:47:02;12.60;;;9.02;;
21833;SDS011;11079;51.092;3.458;2024-02-21T09:49:51;18.77;;;9.18;;
21833;SDS011;11079;51.092;3.458;2024-02-21T09:52:28;19.85;;;9.43;;
21833;SDS011;11079;51.092;3.458;2024-02-21T09:54:58;20.35;;;8.90;;
21833;SDS011;11079;51.092;3.458;2024-02-21T09:57:29;20.27;;;10.40;;
21833;SDS011;11079;51.092;3.458;2024-02-21T10:02:50;14.07;;;8.55;;
21833;SDS011;11079;51.092;3.458;2024-02-21T10:05:16;15.55;;;8.63;;
21833;SDS011;11079;51.092;3.458;2024-02-21T10:07:45;12.27;;;8.18;;
21833;SDS011;11079;51.092;3.458;2024-02-21T10:10:11;17.77;;;9.02;;
21833;SDS011;11079;51.092;3.458;2024-02-21T10:12:49;20.40;;;9.68;;
21833;SDS011;11079;51.092;3.458;2024-02-21T10:15:20;16.90;;;9.27;;
21833;SDS011;11079;51.092;3.458;2024-02-21T10:17:58;13.45;;;8.07;;
21833;SDS011;11079;51.092;3.458;2024-02-21T10:20:45;13.15;;;8.20;;
21833;SDS011;11079;51.092;3.458;2024-02-21T10:23:11;12.57;;;7.82;;
21833;SDS011;11079;51.092;3.458;2024-02-21T10:25:36;14.73;;;8.35;;
21833;SDS011;11079;51.092;3.458;2024-02-21T10:28:13;14.77;;;8.35;;
21833;SDS011;11079;51.092;3.458;2024-02-21T10:30:50;12.57;;;7.32;;
21833;SDS011;11079;51.092;3.458;2024-02-21T10:33:17;10.93;;;7.55;;
21833;SDS011;11079;51.092;3.458;2024-02-21T10:35:45;14.20;;;7.75;;
21833;SDS011;11079;51.092;3.458;2024-02-21T10:38:12;14.50;;;6.95;;
21833;SDS011;11079;51.092;3.458;2024-02-21T10:40:38;13.90;;;7.93;;
21833;SDS011;11079;51.092;3.458;2024-02-21T10:43:03;10.93;;;7.03;;
21833;SDS011;11079;51.092;3.458;2024-02-21T10:45:35;10.48;;;7.60;;
21833;SDS011;11079;51.092;3.458;2024-02-21T10:48:08;15.32;;;8.68;;
21833;SDS011;11079;51.092;3.458;2024-02-21T10:50:53;9.07;;;6.50;;
21833;SDS011;11079;51.092;3.458;2024-02-21T10:56:02;12.48;;;8.10;;
21833;SDS011;11079;51.092;3.458;2024-02-21T10:58:36;14.10;;;7.80;;
21833;SDS011;11079;51.092;3.458;2024-02-21T11:01:03;10.30;;;7.60;;
21833;SDS011;11079;51.092;3.458;2024-02-21T11:03:30;12.00;;;7.88;;
21833;SDS011;11079;51.092;3.458;2024-02-21T11:05:56;13.05;;;8.50;;
21833;SDS011;11079;51.092;3.458;2024-02-21T11:08:22;15.27;;;7.28;;
21833;SDS011;11079;51.092;3.458;2024-02-21T11:10:50;11.52;;;8.07;;
21833;SDS011;11079;51.092;3.458;2024-02-21T11:13:16;16.05;;;8.57;;
21833;SDS011;11079;51.092;3.458;2024-02-21T11:15:41;10.55;;;7.10;;
21833;SDS011;11079;51.092;3.458;2024-02-21T11:18:08;11.35;;;7.60;;
21833;SDS011;11079;51.092;3.458;2024-02-21T11:20:34;13.50;;;7.57;;
21833;SDS011;11079;51.092;3.458;2024-02-21T11:23:04;14.18;;;8.00;;
21833;SDS011;11079;51.092;3.458;2024-02-21T11:25:30;11.45;;;7.05;;
21833;SDS011;11079;51.092;3.458;2024-02-21T11:28:01;14.32;;;8.00;;
21833;SDS011;11079;51.092;3.458;2024-02-21T11:30:31;9.75;;;7.70;;
21833;SDS011;11079;51.092;3.458;2024-02-21T11:33:02;11.82;;;7.88;;
21833;SDS011;11079;51.092;3.458;2024-02-21T11:35:31;13.63;;;7.68;;
21833;SDS011;11079;51.092;3.458;2024-02-21T11:38:12;12.43;;;8.02;;
21833;SDS011;11079;51.092;3.458;2024-02-21T11:40:45;15.57;;;7.75;;
21833;SDS011;11079;51.092;3.458;2024-02-21T11:43:11;13.05;;;7.57;;
21833;SDS011;11079;51.092;3.458;2024-02-21T11:45:37;10.52;;;7.55;;
21833;SDS011;11079;51.092;3.458;2024-02-21T11:48:05;11.10;;;7.45;;
21833;SDS011;11079;51.092;3.458;2024-02-21T11:50:31;13.75;;;7.55;;
21833;SDS011;11079;51.092;3.458;2024-02-21T11:52:57;11.48;;;7.57;;
21833;SDS011;11079;51.092;3.458;2024-02-21T11:55:25;10.02;;;7.53;;
21833;SDS011;11079;51.092;3.458;2024-02-21T11:57:50;15.15;;;7.47;;
21833;SDS011;11079;51.092;3.458;2024-02-21T12:00:17;15.40;;;7.90;;
21833;SDS011;11079;51.092;3.458;2024-02-21T12:02:56;10.07;;;6.82;;
21833;SDS011;11079;51.092;3.458;2024-02-21T12:11:23;8.88;;;6.47;;
21833;SDS011;11079;51.092;3.458;2024-02-21T12:13:58;10.85;;;7.70;;
21833;SDS011;11079;51.092;3.458;2024-02-21T12:16:26;10.45;;;7.40;;
21833;SDS011;11079;51.092;3.458;2024-02-21T12:18:54;12.18;;;6.68;;
21833;SDS011;11079;51.092;3.458;2024-02-21T12:21:23;10.10;;;6.43;;
21833;SDS011;11079;51.092;3.458;2024-02-21T12:23:49;9.85;;;7.00;;
21833;SDS011;11079;51.092;3.458;2024-02-21T12:26:17;13.02;;;7.28;;
21833;SDS011;11079;51.092;3.458;2024-02-21T12:28:42;9.35;;;6.38;;
21833;SDS011;11079;51.092;3.458;2024-02-21T12:31:09;12.77;;;7.28;;
21833;SDS011;11079;51.092;3.458;2024-02-21T12:33:35;13.73;;;7.38;;
21833;SDS011;11079;51.092;3.458;2024-02-21T12:36:01;10.65;;;6.72;;
21833;SDS011;11079;51.092;3.458;2024-02-21T12:38:28;9.48;;;6.95;;
21833;SDS011;11079;51.092;3.458;2024-02-21T12:40:54;9.50;;;5.90;;
21833;SDS011;11079;51.092;3.458;2024-02-21T12:43:23;8.35;;;6.68;;
21833;SDS011;11079;51.092;3.458;2024-02-21T12:45:49;10.38;;;6.85;;
21833;SDS011;11079;51.092;3.458;2024-02-21T12:48:15;10.25;;;6.35;;
21833;SDS011;11079;51.092;3.458;2024-02-21T12:50:42;11.02;;;6.75;;
21833;SDS011;11079;51.092;3.458;2024-02-21T12:53:15;10.65;;;6.28;;
21833;SDS011;11079;51.092;3.458;2024-02-21T12:55:41;10.55;;;6.28;;
21833;SDS011;11079;51.092;3.458;2024-02-21T12:58:15;11.43;;;7.38;;
21833;SDS011;11079;51.092;3.458;2024-02-21T13:00:44;7.85;;;6.50;;
21833;SDS011;11079;51.092;3.458;2024-02-21T13:03:13;9.52;;;6.72;;
21833;SDS011;11079;51.092;3.458;2024-02-21T13:06:09;7.95;;;6.03;;
21833;SDS011;11079;51.092;3.458;2024-02-21T13:08:36;9.15;;;6.35;;
21833;SDS011;11079;51.092;3.458;2024-02-21T13:11:20;9.73;;;7.13;;
21833;SDS011;11079;51.092;3.458;2024-02-21T13:13:46;11.88;;;7.15;;
21833;SDS011;11079;51.092;3.458;2024-02-21T13:16:12;9.52;;;6.90;;
21833;SDS011;11079;51.092;3.458;2024-02-21T13:18:41;11.90;;;7.10;;
21833;SDS011;11079;51.092;3.458;2024-02-21T13:21:26;17.20;;;7.75;;
21833;SDS011;11079;51.092;3.458;2024-02-21T13:23:51;13.35;;;7.32;;
21833;SDS011;11079;51.092;3.458;2024-02-21T13:26:17;9.35;;;7.00;;
21833;SDS011;11079;51.092;3.458;2024-02-21T13:28:44;10.02;;;6.70;;
21833;SDS011;11079;51.092;3.458;2024-02-21T13:31:10;11.80;;;7.38;;
21833;SDS011;11079;51.092;3.458;2024-02-21T13:33:38;14.27;;;7.70;;
21833;SDS011;11079;51.092;3.458;2024-02-21T13:36:10;10.23;;;6.55;;
21833;SDS011;11079;51.092;3.458;2024-02-21T13:38:37;11.15;;;7.07;;
21833;SDS011;11079;51.092;3.458;2024-02-21T13:41:06;9.25;;;6.65;;
21833;SDS011;11079;51.092;3.458;2024-02-21T13:43:33;12.48;;;8.23;;
21833;SDS011;11079;51.092;3.458;2024-02-21T13:46:03;15.63;;;7.75;;
21833;SDS011;11079;51.092;3.458;2024-02-21T13:48:34;12.23;;;7.85;;
21833;SDS011;11079;51.092;3.458;2024-02-21T13:51:00;14.43;;;7.47;;
21833;SDS011;11079;51.092;3.458;2024-02-21T13:53:27;8.65;;;6.60;;
21833;SDS011;11079;51.092;3.458;2024-02-21T13:55:53;15.75;;;8.00;;
21833;SDS011;11079;51.092;3.458;2024-02-21T13:58:22;14.02;;;7.50;;
21833;SDS011;11079;51.092;3.458;2024-02-21T14:03:45;9.80;;;7.25;;
21833;SDS011;11079;51.092;3.458;2024-02-21T14:06:11;10.95;;;7.05;;
21833;SDS011;11079;51.092;3.458;2024-02-21T14:08:37;13.02;;;8.07;;
21833;SDS011;11079;51.092;3.458;2024-02-21T14:11:22;11.02;;;7.18;;
21833;SDS011;11079;51.092;3.458;2024-02-21T14:13:48;11.70;;;6.93;;
21833;SDS011;11079;51.092;3.458;2024-02-21T14:16:21;12.70;;;7.75;;
21833;SDS011;11079;51.092;3.458;2024-02-21T14:18:48;12.10;;;6.75;;
21833;SDS011;11079;51.092;3.458;2024-02-21T14:21:14;9.30;;;6.53;;
21833;SDS011;11079;51.092;3.458;2024-02-21T14:23:40;15.63;;;9.52;;
21833;SDS011;11079;51.092;3.458;2024-02-21T14:26:11;10.65;;;7.82;;
21833;SDS011;11079;51.092;3.458;2024-02-21T14:28:37;16.02;;;8.27;;
21833;SDS011;11079;51.092;3.458;2024-02-21T14:31:03;12.95;;;6.57;;
21833;SDS011;11079;51.092;3.458;2024-02-21T14:33:31;10.40;;;6.50;;
21833;SDS011;11079;51.092;3.458;2024-02-21T14:35:57;10.10;;;6.47;;
21833;SDS011;11079;51.092;3.458;2024-02-21T14:38:22;10.35;;;7.38;;
21833;SDS011;11079;51.092;3.458;2024-02-21T14:40:48;13.93;;;7.75;;
21833;SDS011;11079;51.092;3.458;2024-02-21T14:43:14;12.82;;;8.18;;
21833;SDS011;11079;51.092;3.458;2024-02-21T14:45:39;11.75;;;7.78;;
21833;SDS011;11079;51.092;3.458;2024-02-21T14:48:20;13.25;;;6.95;;
21833;SDS011;11079;51.092;3.458;2024-02-21T14:50:46;11.60;;;7.13;;
21833;SDS011;11079;51.092;3.458;2024-02-21T14:53:12;12.88;;;6.40;;
21833;SDS011;11079;51.092;3.458;2024-02-21T14:55:38;12.75;;;7.10;;
21833;SDS011;11079;51.092;3.458;2024-02-21T14:58:05;14.60;;;7.03;;
21833;SDS011;11079;51.092;3.458;2024-02-21T15:00:32;12.23;;;6.28;;
21833;SDS011;11079;51.092;3.458;2024-02-21T15:02:58;9.32;;;5.47;;
21833;SDS011;11079;51.092;3.458;2024-02-21T15:05:24;10.65;;;6.82;;
21833;SDS011;11079;51.092;3.458;2024-02-21T15:07:50;14.35;;;6.47;;
21833;SDS011;11079;51.092;3.458;2024-02-21T15:10:17;9.35;;;4.85;;
21833;SDS011;11079;51.092;3.458;2024-02-21T15:12:46;9.93;;;6.53;;
21833;SDS011;11079;51.092;3.458;2024-02-21T15:15:12;13.02;;;6.78;;
21833;SDS011;11079;51.092;3.458;2024-02-21T15:17:39;10.45;;;6.53;;
21833;SDS011;11079;51.092;3.458;2024-02-21T15:20:06;7.75;;;5.60;;
21833;SDS011;11079;51.092;3.458;2024-02-21T15:22:36;10.95;;;6.28;;
21833;SDS011;11079;51.092;3.458;2024-02-21T15:25:02;9.25;;;6.70;;
21833;SDS011;11079;51.092;3.458;2024-02-21T15:27:30;12.30;;;6.45;;
21833;SDS011;11079;51.092;3.458;2024-02-21T15:29:55;12.27;;;5.18;;
21833;SDS011;11079;51.092;3.458;2024-02-21T15:32:25;9.57;;;6.05;;
21833;SDS011;11079;51.092;3.458;2024-02-21T15:34:52;7.45;;;5.82;;
21833;SDS011;11079;51.092;3.458;2024-02-21T15:37:17;12.88;;;6.63;;
21833;SDS011;11079;51.092;3.458;2024-02-21T15:39:43;8.25;;;5.00;;
21833;SDS011;11079;51.092;3.458;2024-02-21T15:42:09;9.38;;;6.13;;
21833;SDS011;11079;51.092;3.458;2024-02-21T15:44:37;11.60;;;6.68;;
21833;SDS011;11079;51.092;3.458;2024-02-21T15:47:02;13.27;;;6.82;;
21833;SDS011;11079;51.092;3.458;2024-02-21T15:49:32;14.50;;;5.65;;
21833;SDS011;11079;51.092;3.458;2024-02-21T15:51:58;9.57;;;5.43;;
21833;SDS011;11079;51.092;3.458;2024-02-21T15:54:24;10.00;;;6.20;;
21833;SDS011;11079;51.092;3.458;2024-02-21T15:56:52;8.15;;;5.70;;
21833;SDS011;11079;51.092;3.458;2024-02-21T15:59:18;11.30;;;6.47;;
21833;SDS011;11079;51.092;3.458;2024-02-21T16:01:43;10.93;;;5.30;;
21833;SDS011;11079;51.092;3.458;2024-02-21T16:04:09;8.52;;;5.32;;
21833;SDS011;11079;51.092;3.458;2024-02-21T16:06:34;9.38;;;6.18;;
21833;SDS011;11079;51.092;3.458;2024-02-21T16:09:00;15.55;;;5.85;;
21833;SDS011;11079;51.092;3.458;2024-02-21T16:11:29;19.45;;;7.30;;
21833;SDS011;11079;51.092;3.458;2024-02-21T16:13:55;9.02;;;5.57;;
21833;SDS011;11079;51.092;3.458;2024-02-21T16:16:22;13.95;;;5.93;;
21833;SDS011;11079;51.092;3.458;2024-02-21T16:18:47;9.88;;;5.15;;
21833;SDS011;11079;51.092;3.458;2024-02-21T16:21:13;10.55;;;6.28;;
21833;SDS011;11079;51.092;3.458;2024-02-21T16:23:39;9.23;;;5.15;;
21833;SDS011;11079;51.092;3.458;2024-02-21T16:26:05;8.77;;;5.50;;
21833;SDS011;11079;51.092;3.458;2024-02-21T16:28:30;13.73;;;5.38;;
21833;SDS011;11079;51.092;3.458;2024-02-21T16:30:56;7.88;;;4.63;;
21833;SDS011;11079;51.092;3.458;2024-02-21T16:33:23;8.27;;;5.00;;
21833;SDS011;11079;51.092;3.458;2024-02-21T16:35:49;11.07;;;5.68;;
21833;SDS011;11079;51.092;3.458;2024-02-21T16:38:16;8.57;;;5.35;;
21833;SDS011;11079;51.092;3.458;2024-02-21T16:40:41;10.32;;;5.47;;
21833;SDS011;11079;51.092;3.458;2024-02-21T16:43:08;7.43;;;4.13;;
21833;SDS011;11079;51.092;3.458;2024-02-21T16:45:33;7.88;;;4.90;;
21833;SDS011;11079;51.092;3.458;2024-02-21T16:48:00;8.02;;;5.65;;
21833;SDS011;11079;51.092;3.458;2024-02-21T16:50:25;7.78;;;5.22;;
21833;SDS011;11079;51.092;3.458;2024-02-21T16:52:51;7.65;;;4.93;;
21833;SDS011;11079;51.092;3.458;2024-02-21T16:55:17;14.95;;;5.95;;
21833;SDS011;11079;51.092;3.458;2024-02-21T16:57:43;10.32;;;5.72;;
21833;SDS011;11079;51.092;3.458;2024-02-21T17:00:09;6.85;;;5.45;;
21833;SDS011;11079;51.092;3.458;2024-02-21T17:02:38;9.05;;;4.97;;
21833;SDS011;11079;51.092;3.458;2024-02-21T17:05:05;13.20;;;5.30;;
21833;SDS011;11079;51.092;3.458;2024-02-21T17:07:31;10.90;;;6.05;;
21833;SDS011;11079;51.092;3.458;2024-02-21T17:09:57;9.90;;;5.15;;
21833;SDS011;11079;51.092;3.458;2024-02-21T17:12:23;10.82;;;5.05;;
21833;SDS011;11079;51.092;3.458;2024-02-21T17:14:49;6.18;;;4.55;;
21833;SDS011;11079;51.092;3.458;2024-02-21T17:17:16;13.23;;;5.55;;
21833;SDS011;11079;51.092;3.458;2024-02-21T17:19:42;11.30;;;5.32;;
21833;SDS011;11079;51.092;3.458;2024-02-21T17:22:07;14.25;;;6.78;;
21833;SDS011;11079;51.092;3.458;2024-02-21T17:24:33;10.88;;;5.82;;
21833;SDS011;11079;51.092;3.458;2024-02-21T17:26:59;13.85;;;5.95;;
21833;SDS011;11079;51.092;3.458;2024-02-21T17:29:25;8.70;;;5.68;;